MAPA DE AEROPUERTO

INFORMACIÓN METAR y TAF


Deprecated: The each() function is deprecated. This message will be suppressed on further calls in /home/customer/www/clickair-va.com/public_html/VAM/vam/helpers/get_metar.php on line 20
METAR FOR LEZL
ADDS - METARS form results

(0337 UTC 02 October 2022)
Data provider http://aviationweather.gov/metar/data/
 
METAR text: LEZL 020330Z 07012KT CAVOK 19/08 Q1021 NOSIG
Conditions at: LEZL (SEVILLA (CIV/MIL, ES) observed 0330 UTC 02 October 2022
Temperature: 19.0°C (66°F)
Dewpoint: 8.0°C (46°F) [RH = 49%]
Pressure (altimeter): 30.15 inches Hg (1021.0 mb)
Winds: from the ENE (70 degrees) at 14 MPH (12 knots; 6.2 m/s)
Visibility: 6 or more miles (10+ km)
Ceiling: ceiling and visibility are OK
Clouds: unknown
Weather: no significant weather observed at this time

METAR text: LEZL 020300Z AUTO 08012KT CAVOK 19/09 Q1022
Conditions at: LEZL (SEVILLA (CIV/MIL, ES) observed 0300 UTC 02 October 2022
Temperature: 19.0°C (66°F)
Dewpoint: 9.0°C (48°F) [RH = 52%]
Pressure (altimeter): 30.18 inches Hg (1022.0 mb)
Winds: from the E (80 degrees) at 14 MPH (12 knots; 6.2 m/s)
Visibility: 6 or more miles (10+ km)
Ceiling: ceiling and visibility are OK
Clouds: unknown
Weather: no significant weather observed at this time

Forecast for: LEZL (SEVILLA (CIV/MIL, ES)
Text: TAF LEZL 020200Z 0203/0303 06012KT CAVOK TX33/0215Z TN16/0206Z
Forecast period: 0300 to 1100 UTC 02 October 2022
Forecast type: FROM: standard forecast or significant change
Winds: from the ENE (60 degrees) at 14 MPH (12 knots; 6.2 m/s)
Visibility: 6 or more miles (10+ km)
Ceiling: unknown
Clouds: missing
Weather: no significant weather forecast for this period
Text: PROB30
Forecast period: 0800 to 1100 UTC 02 October 2022
Forecast type: TEMPORARY: The following changes expected for less than half the time period
Winds: from the ENE (60 degrees) at 17 MPH (15 knots; 7.7 m/s)
gusting to 29 MPH (25 knots; 12.9 m/s)
Visibility: missing
Ceiling: unknown
Clouds: missing
Weather: no significant weather forecast for this period
Text: TEMPO 0208/0211 06015G25KT
Forecast period: 1100 to 1900 UTC 02 October 2022
Forecast type: BECOMING: Conditions expected to become as follows by 1300 UTC 02 October 2022
Winds: from the ESE (120 degrees) at 13 MPH (11 knots; 5.7 m/s)
Visibility: 6 or more miles (10+ km)
Ceiling: unknown
Clouds: missing
Weather: no significant weather forecast for this period
Text: BECMG 0211/0213 12011KT
Forecast period: 1900 UTC 02 October 2022 to 0300 UTC 03 October 2022
Forecast type: BECOMING: Conditions expected to become as follows by 2100 UTC 02 October 2022
Winds: variable direction winds at 2 MPH (2 knots; 1.0 m/s)
Visibility: 6 or more miles (10+ km)
Ceiling: unknown
Clouds: missing
Weather: no significant weather forecast for this period